createdAt,value
2018-05-09T00:00:25.879Z,15.50
2018-05-09T00:02:52.948Z,15.50
2018-05-09T00:05:19.071Z,15.50
2018-05-09T00:07:46.322Z,15.50
2018-05-09T00:10:14.453Z,15.40
2018-05-09T00:12:40.504Z,15.30
2018-05-09T00:15:06.575Z,15.40
2018-05-09T00:17:33.653Z,15.40
2018-05-09T00:20:00.746Z,15.30
2018-05-09T00:22:26.907Z,15.30
2018-05-09T00:24:53.765Z,15.20
2018-05-09T00:27:19.945Z,15.20
2018-05-09T00:29:46.070Z,15.20
2018-05-09T00:32:13.169Z,15.20
2018-05-09T00:34:39.316Z,15.10
2018-05-09T00:37:05.510Z,15.10
2018-05-09T00:39:32.409Z,15.10
2018-05-09T00:42:00.560Z,15.00
2018-05-09T00:44:27.701Z,15.10
2018-05-09T00:46:53.869Z,15.10
2018-05-09T00:49:20.963Z,15.00
2018-05-09T00:51:48.016Z,14.90
2018-05-09T00:54:26.357Z,14.90
2018-05-09T00:56:55.646Z,15.00
2018-05-09T00:59:23.752Z,14.90
2018-05-09T01:01:49.923Z,14.90
2018-05-09T01:04:16.204Z,14.80
2018-05-09T01:06:42.455Z,14.90
2018-05-09T01:09:09.563Z,14.80
2018-05-09T01:11:35.639Z,14.90
2018-05-09T01:14:01.908Z,14.90
2018-05-09T01:16:29.004Z,14.80
2018-05-09T01:18:55.102Z,14.80
2018-05-09T01:21:24.513Z,14.80
2018-05-09T01:23:51.952Z,14.80
2018-05-09T01:26:18.144Z,14.80
2018-05-09T01:28:45.021Z,14.70
2018-05-09T01:31:11.197Z,14.60
2018-05-09T01:33:37.277Z,14.60
2018-05-09T01:36:04.466Z,14.50
2018-05-09T01:38:30.679Z,14.50
2018-05-09T01:40:57.786Z,14.50
2018-05-09T01:43:24.751Z,14.50
2018-05-09T01:45:50.954Z,14.50
2018-05-09T01:48:18.121Z,14.50
2018-05-09T01:50:46.200Z,14.50
2018-05-09T01:53:15.767Z,14.50
2018-05-09T01:55:41.852Z,14.40
2018-05-09T01:58:08.982Z,14.40
2018-05-09T02:00:36.050Z,14.30
2018-05-09T02:03:03.214Z,14.30
2018-05-09T02:05:29.387Z,14.30
2018-05-09T02:07:56.229Z,14.20
2018-05-09T02:10:23.489Z,14.20
2018-05-09T02:12:55.548Z,14.20
2018-05-09T02:15:22.416Z,14.20
2018-05-09T02:17:48.724Z,14.20
2018-05-09T02:20:15.637Z,14.00
2018-05-09T02:22:41.709Z,14.00
2018-05-09T02:25:07.836Z,14.00
2018-05-09T02:27:34.991Z,13.90
2018-05-09T02:30:04.200Z,13.90
2018-05-09T02:32:31.351Z,13.80
2018-05-09T02:34:57.472Z,14.20
2018-05-09T02:37:23.595Z,13.70
2018-05-09T02:39:49.709Z,13.70
2018-05-09T02:42:15.787Z,13.60
2018-05-09T02:44:41.872Z,13.60
2018-05-09T02:47:09.978Z,13.60
2018-05-09T02:49:37.155Z,13.60
2018-05-09T02:52:03.344Z,13.50
2018-05-09T02:54:30.507Z,13.50
2018-05-09T02:56:56.684Z,13.50
2018-05-09T02:59:25.556Z,13.40
2018-05-09T03:01:51.736Z,13.40
2018-05-09T03:04:17.784Z,13.40
2018-05-09T03:06:43.911Z,13.40
2018-05-09T03:09:10.182Z,13.20
2018-05-09T03:11:37.377Z,13.30
2018-05-09T03:14:04.576Z,13.30
2018-05-09T03:16:30.639Z,13.30
2018-05-09T03:18:58.562Z,13.30
2018-05-09T03:21:25.454Z,13.20
2018-05-09T03:23:51.912Z,13.20
2018-05-09T03:26:18.021Z,13.20
2018-05-09T03:28:44.284Z,13.20
2018-05-09T03:31:11.175Z,13.20
2018-05-09T03:33:37.296Z,13.10
2018-05-09T03:36:03.379Z,13.20
2018-05-09T03:38:30.281Z,13.20
2018-05-09T03:40:56.398Z,13.20
2018-05-09T03:43:22.485Z,13.20
2018-05-09T03:45:48.585Z,13.30
2018-05-09T03:48:14.791Z,13.30
2018-05-09T03:50:41.693Z,13.30
2018-05-09T03:53:07.767Z,13.30
2018-05-09T03:55:33.864Z,13.20
2018-05-09T03:58:01.765Z,13.10
2018-05-09T04:00:28.176Z,13.20
2018-05-09T04:03:06.555Z,13.20
2018-05-09T04:05:44.883Z,13.20
2018-05-09T04:08:24.033Z,13.20
2018-05-09T04:10:52.199Z,13.20
2018-05-09T04:13:18.294Z,13.30
2018-05-09T04:15:44.381Z,13.30
2018-05-09T04:18:10.468Z,13.30
2018-05-09T04:20:39.412Z,13.30
2018-05-09T04:23:05.947Z,13.30
2018-05-09T04:25:32.172Z,13.40
2018-05-09T04:27:59.085Z,13.40
2018-05-09T04:30:28.862Z,13.50
2018-05-09T04:32:56.744Z,13.60
2018-05-09T04:35:23.003Z,13.60
2018-05-09T04:37:49.338Z,13.70
2018-05-09T04:40:15.391Z,13.80
2018-05-09T04:42:42.468Z,13.90
2018-05-09T04:45:08.539Z,14.00
2018-05-09T04:47:35.720Z,14.00
2018-05-09T04:50:01.862Z,13.90
2018-05-09T04:52:27.940Z,14.00
2018-05-09T04:54:54.037Z,14.10
2018-05-09T04:57:20.097Z,14.20
2018-05-09T04:59:48.236Z,14.30
2018-05-09T05:02:14.407Z,14.40
2018-05-09T05:04:41.538Z,14.70
2018-05-09T05:07:07.586Z,15.10
2018-05-09T05:09:34.732Z,15.40
2018-05-09T05:12:00.852Z,15.50
2018-05-09T05:14:26.917Z,15.90
2018-05-09T05:16:52.961Z,16.30
2018-05-09T05:19:19.018Z,16.20
2018-05-09T05:21:46.137Z,16.50
2018-05-09T05:24:12.261Z,16.80
2018-05-09T05:26:38.709Z,17.00
2018-05-09T05:29:05.930Z,16.80
2018-05-09T05:31:32.790Z,17.20
2018-05-09T05:33:59.991Z,17.30
2018-05-09T05:36:27.217Z,17.70
2018-05-09T05:38:53.344Z,17.90
2018-05-09T05:41:22.117Z,18.20
2018-05-09T05:43:49.496Z,18.20
2018-05-09T05:46:17.631Z,18.50
2018-05-09T05:48:44.435Z,19.10
2018-05-09T05:51:11.532Z,19.10
2018-05-09T05:53:37.602Z,19.50
2018-05-09T05:56:05.784Z,19.20
2018-05-09T05:58:35.924Z,20.00
2018-05-09T06:01:02.003Z,20.00
2018-05-09T06:03:28.044Z,20.20
2018-05-09T06:05:54.194Z,20.30
2018-05-09T06:08:20.353Z,20.30
2018-05-09T06:10:47.145Z,20.40
2018-05-09T06:13:13.323Z,20.40
2018-05-09T06:15:39.686Z,20.50
2018-05-09T06:18:05.735Z,20.90
2018-05-09T06:20:31.798Z,21.10
2018-05-09T06:22:58.596Z,21.70
2018-05-09T06:25:25.672Z,21.70
2018-05-09T06:27:51.734Z,21.60
2018-05-09T06:30:17.859Z,21.20
2018-05-09T06:32:43.916Z,21.20
2018-05-09T06:35:10.070Z,21.50
2018-05-09T06:37:36.273Z,21.50
2018-05-09T06:40:02.503Z,22.10
2018-05-09T06:42:28.884Z,22.50
2018-05-09T06:44:55.707Z,23.00
2018-05-09T06:47:21.872Z,23.00
2018-05-09T06:49:47.903Z,23.40
2018-05-09T06:52:13.963Z,23.60
2018-05-09T06:54:44.125Z,23.70
2018-05-09T06:57:10.968Z,24.20
2018-05-09T06:59:37.865Z,25.00
2018-05-09T07:02:03.940Z,25.00
2018-05-09T07:04:30.053Z,25.20
2018-05-09T07:06:56.420Z,24.60
2018-05-09T07:09:25.940Z,24.60
2018-05-09T07:11:52.054Z,24.40
2018-05-09T07:14:18.291Z,25.20
2018-05-09T07:16:44.451Z,24.90
2018-05-09T07:19:10.610Z,25.20
2018-05-09T07:21:41.431Z,25.00
2018-05-09T07:24:10.424Z,25.50
2018-05-09T07:26:37.308Z,25.90
2018-05-09T07:29:05.360Z,25.90
2018-05-09T07:31:31.690Z,25.80
2018-05-09T07:33:58.503Z,25.50
2018-05-09T07:36:24.741Z,25.50
2018-05-09T07:38:51.561Z,26.10
2018-05-09T07:41:17.705Z,26.10
2018-05-09T07:43:43.892Z,26.80
2018-05-09T07:46:09.985Z,27.20
2018-05-09T07:48:37.903Z,26.80
2018-05-09T07:51:03.966Z,26.80
2018-05-09T07:53:30.841Z,28.20
2018-05-09T07:55:56.863Z,28.10
2018-05-09T07:58:25.067Z,28.60
2018-05-09T08:00:55.670Z,29.10
2018-05-09T08:03:21.807Z,29.50
2018-05-09T08:05:48.943Z,29.00
2018-05-09T08:08:15.091Z,29.30
2018-05-09T08:10:41.169Z,29.10
2018-05-09T08:13:08.158Z,29.40
2018-05-09T08:15:34.363Z,29.40
2018-05-09T08:18:01.438Z,29.00
2018-05-09T08:20:29.661Z,28.90
2018-05-09T08:22:56.852Z,29.40
2018-05-09T08:25:22.922Z,30.10
2018-05-09T08:27:50.099Z,30.00
2018-05-09T08:30:16.271Z,29.70
2018-05-09T08:32:42.336Z,30.10
2018-05-09T08:35:15.759Z,30.50
2018-05-09T08:37:47.385Z,30.10
2018-05-09T08:40:14.483Z,30.10
2018-05-09T08:42:40.580Z,30.10
2018-05-09T08:45:07.461Z,29.90
2018-05-09T08:47:33.567Z,29.90
2018-05-09T08:49:59.692Z,29.50
2018-05-09T08:52:25.746Z,30.10
2018-05-09T08:54:51.960Z,30.20
2018-05-09T08:57:18.026Z,30.00
2018-05-09T08:59:44.263Z,30.10
2018-05-09T09:02:10.510Z,30.40
2018-05-09T09:04:37.316Z,30.70
2018-05-09T09:07:03.561Z,30.70
2018-05-09T09:09:32.700Z,30.80
2018-05-09T09:11:58.804Z,31.10
2018-05-09T09:14:27.023Z,31.30
2018-05-09T09:16:54.164Z,31.00
2018-05-09T09:19:22.379Z,31.50
2018-05-09T09:21:48.466Z,32.00
2018-05-09T09:24:15.657Z,31.10
2018-05-09T09:26:41.807Z,30.90
2018-05-09T09:29:09.990Z,30.80
2018-05-09T09:31:41.866Z,30.30
2018-05-09T09:34:07.974Z,30.20
2018-05-09T09:36:34.935Z,31.30
2018-05-09T09:39:01.021Z,31.30
2018-05-09T09:41:27.990Z,31.90
2018-05-09T09:43:54.923Z,31.70
2018-05-09T09:46:22.884Z,31.40
2018-05-09T09:48:50.152Z,31.40
2018-05-09T09:51:16.308Z,31.20
2018-05-09T09:53:42.459Z,30.90
2018-05-09T09:56:14.391Z,31.00
2018-05-09T09:58:40.514Z,31.20
2018-05-09T10:01:10.226Z,31.70
2018-05-09T10:03:43.586Z,30.90
2018-05-09T10:06:09.680Z,31.50
2018-05-09T10:08:35.875Z,31.30
2018-05-09T10:11:01.987Z,30.90
2018-05-09T10:13:29.152Z,31.00
2018-05-09T10:15:56.380Z,31.10
2018-05-09T10:18:23.961Z,30.90
2018-05-09T10:20:50.096Z,31.40
2018-05-09T10:23:16.238Z,32.10
2018-05-09T10:25:43.392Z,31.60
2018-05-09T10:28:10.553Z,31.80
2018-05-09T10:30:37.582Z,31.60
2018-05-09T10:33:03.723Z,31.60
2018-05-09T10:35:29.841Z,31.70
2018-05-09T10:37:55.946Z,32.00
2018-05-09T10:40:22.035Z,31.80
2018-05-09T10:42:48.264Z,31.80
2018-05-09T10:45:18.627Z,31.70
2018-05-09T10:47:44.810Z,31.70
2018-05-09T10:50:10.984Z,31.50
2018-05-09T10:52:38.113Z,31.60
2018-05-09T10:55:04.961Z,31.10
2018-05-09T10:57:31.205Z,31.10
2018-05-09T10:59:58.065Z,31.30
2018-05-09T11:02:24.168Z,31.20
2018-05-09T11:04:50.289Z,31.10
2018-05-09T11:07:16.337Z,31.70
2018-05-09T11:09:42.348Z,31.60
2018-05-09T11:12:08.733Z,31.20
2018-05-09T11:14:36.026Z,31.90
2018-05-09T11:17:02.038Z,31.80
2018-05-09T11:19:30.024Z,31.90
2018-05-09T11:21:56.099Z,31.90
2018-05-09T11:24:22.400Z,31.80
2018-05-09T11:26:48.379Z,32.20
2018-05-09T11:29:21.597Z,31.60
2018-05-09T11:31:48.048Z,31.50
2018-05-09T11:34:16.225Z,31.20
2018-05-09T11:36:46.019Z,31.10
2018-05-09T11:39:12.179Z,31.50
2018-05-09T11:41:39.295Z,31.60
2018-05-09T11:44:06.377Z,31.80
2018-05-09T11:46:32.458Z,32.20
2018-05-09T11:49:02.420Z,32.10
2018-05-09T11:51:30.591Z,32.20
2018-05-09T11:53:57.708Z,32.10
2018-05-09T11:56:23.762Z,32.30
2018-05-09T11:58:49.938Z,32.20
2018-05-09T12:01:16.783Z,32.20
2018-05-09T12:03:42.979Z,32.10
2018-05-09T12:06:10.155Z,31.50
2018-05-09T12:08:37.949Z,32.00
2018-05-09T12:11:04.110Z,32.00
2018-05-09T12:13:30.349Z,31.90
2018-05-09T12:15:57.632Z,31.80
2018-05-09T12:18:25.533Z,32.50
2018-05-09T12:20:51.942Z,32.50
2018-05-09T12:23:18.843Z,31.90
2018-05-09T12:25:45.043Z,31.90
2018-05-09T12:28:11.232Z,31.30
2018-05-09T12:30:38.060Z,30.70
2018-05-09T12:33:05.131Z,30.50
2018-05-09T12:35:31.284Z,30.50
2018-05-09T12:37:57.403Z,30.80
2018-05-09T12:40:23.511Z,31.10
2018-05-09T12:42:50.597Z,31.10
2018-05-09T12:45:16.653Z,31.00
2018-05-09T12:47:43.751Z,30.90
2018-05-09T12:50:09.892Z,31.30
2018-05-09T12:52:36.032Z,31.30
2018-05-09T12:55:02.089Z,30.90
2018-05-09T12:57:28.165Z,30.70
2018-05-09T12:59:55.988Z,30.70
2018-05-09T13:02:22.123Z,30.60
2018-05-09T13:04:50.030Z,30.80
2018-05-09T13:07:16.086Z,30.80
2018-05-09T13:09:42.376Z,30.90
2018-05-09T13:12:09.429Z,31.10
2018-05-09T13:14:35.619Z,30.50
2018-05-09T13:17:02.415Z,30.50
2018-05-09T13:19:29.581Z,30.50
2018-05-09T13:21:57.139Z,30.20
2018-05-09T13:24:24.206Z,30.20
2018-05-09T13:26:51.017Z,30.40
2018-05-09T13:29:17.125Z,30.40
2018-05-09T13:31:44.196Z,29.80
2018-05-09T13:34:13.364Z,29.50
2018-05-09T13:36:40.788Z,30.00
2018-05-09T13:39:09.865Z,29.80
2018-05-09T13:41:36.919Z,29.80
2018-05-09T13:44:02.953Z,30.10
2018-05-09T13:46:29.075Z,29.40
2018-05-09T13:48:55.337Z,29.70
2018-05-09T13:51:22.499Z,29.70
2018-05-09T13:53:49.627Z,30.10
2018-05-09T13:56:15.674Z,30.30
2018-05-09T13:58:42.504Z,30.00
2018-05-09T14:01:08.549Z,30.00
2018-05-09T14:03:35.899Z,30.00
2018-05-09T14:06:01.997Z,30.10
2018-05-09T14:08:29.091Z,29.30
2018-05-09T14:10:57.493Z,29.30
2018-05-09T14:13:25.812Z,28.90
2018-05-09T14:15:54.006Z,28.60
2018-05-09T14:18:20.108Z,28.90
2018-05-09T14:20:47.646Z,29.00
2018-05-09T14:23:15.405Z,28.80
2018-05-09T14:25:41.488Z,28.80
2018-05-09T14:28:09.719Z,28.90
2018-05-09T14:30:36.503Z,28.80
2018-05-09T14:33:02.688Z,28.80
2018-05-09T14:35:29.729Z,28.70
2018-05-09T14:37:55.821Z,28.70
2018-05-09T14:40:22.283Z,28.80
2018-05-09T14:42:48.376Z,29.20
2018-05-09T14:45:14.700Z,29.30
2018-05-09T14:47:40.880Z,28.90
2018-05-09T14:50:08.764Z,28.90
2018-05-09T14:52:35.688Z,28.60
2018-05-09T14:55:02.524Z,28.50
2018-05-09T14:57:28.676Z,28.50
2018-05-09T14:59:55.511Z,28.20
2018-05-09T15:02:22.412Z,28.10
2018-05-09T15:04:48.622Z,28.00
2018-05-09T15:07:14.713Z,27.60
2018-05-09T15:09:41.569Z,27.90
2018-05-09T15:12:08.653Z,28.00
2018-05-09T15:14:34.756Z,27.90
2018-05-09T15:17:01.943Z,27.90
2018-05-09T15:19:28.099Z,28.10
2018-05-09T15:21:55.217Z,28.50
2018-05-09T15:24:21.244Z,28.40
2018-05-09T15:26:47.308Z,28.20
2018-05-09T15:29:14.105Z,27.80
2018-05-09T15:31:40.188Z,27.80
2018-05-09T15:34:06.246Z,27.30
2018-05-09T15:36:33.339Z,26.90
2018-05-09T15:39:00.320Z,27.00
2018-05-09T15:41:26.279Z,26.90
2018-05-09T15:43:52.323Z,27.00
2018-05-09T15:46:18.523Z,27.30
2018-05-09T15:48:44.622Z,27.30
2018-05-09T15:51:11.735Z,27.20
2018-05-09T15:53:38.699Z,27.40
2018-05-09T15:56:05.605Z,27.30
2018-05-09T15:58:31.809Z,27.20
2018-05-09T16:00:58.896Z,27.20
2018-05-09T16:03:26.843Z,27.10
2018-05-09T16:05:52.913Z,27.10
2018-05-09T16:08:19.732Z,27.00
2018-05-09T16:10:45.977Z,27.00
2018-05-09T16:13:13.889Z,26.70
2018-05-09T16:15:40.695Z,26.80
2018-05-09T16:18:06.815Z,26.80
2018-05-09T16:20:34.689Z,26.70
2018-05-09T16:23:01.536Z,26.70
2018-05-09T16:25:27.720Z,26.70
2018-05-09T16:27:55.065Z,26.70
2018-05-09T16:30:21.128Z,26.60
2018-05-09T16:32:50.123Z,26.40
2018-05-09T16:35:18.001Z,26.50
2018-05-09T16:37:44.783Z,26.50
2018-05-09T16:40:11.860Z,26.60
2018-05-09T16:42:38.948Z,26.50
2018-05-09T16:45:05.025Z,26.50
2018-05-09T16:47:31.102Z,26.30
2018-05-09T16:49:57.261Z,26.30
2018-05-09T16:52:23.340Z,26.20
2018-05-09T16:54:50.190Z,26.10
2018-05-09T16:57:16.312Z,26.10
2018-05-09T16:59:43.190Z,26.00
2018-05-09T17:02:10.284Z,26.00
2018-05-09T17:04:37.201Z,25.90
2018-05-09T17:07:03.310Z,25.90
2018-05-09T17:09:29.401Z,25.90
2018-05-09T17:11:55.572Z,25.70
2018-05-09T17:14:25.304Z,25.70
2018-05-09T17:16:51.360Z,25.60
2018-05-09T17:19:18.272Z,25.50
2018-05-09T17:21:56.621Z,25.60
2018-05-09T17:24:27.279Z,25.50
2018-05-09T17:26:55.143Z,25.30
2018-05-09T17:29:21.225Z,25.30
2018-05-09T17:31:48.043Z,24.90
2018-05-09T17:34:14.209Z,24.90
2018-05-09T17:36:41.077Z,24.60
2018-05-09T17:39:07.211Z,24.60
2018-05-09T17:41:33.510Z,24.50
2018-05-09T17:44:00.223Z,24.30
2018-05-09T17:46:27.331Z,24.20
2018-05-09T17:48:55.523Z,24.20
2018-05-09T17:51:21.633Z,24.10
2018-05-09T17:53:48.467Z,24.00
2018-05-09T17:56:14.642Z,24.00
2018-05-09T17:58:40.865Z,23.90
2018-05-09T18:01:06.972Z,23.80
2018-05-09T18:03:33.051Z,23.70
2018-05-09T18:05:59.855Z,23.30
2018-05-09T18:08:25.991Z,23.40
2018-05-09T18:10:52.063Z,23.20
2018-05-09T18:13:18.910Z,23.10
2018-05-09T18:15:46.011Z,23.00
2018-05-09T18:18:12.167Z,22.80
2018-05-09T18:20:38.251Z,22.70
2018-05-09T18:23:04.331Z,22.60
2018-05-09T18:25:31.207Z,22.40
2018-05-09T18:27:57.361Z,22.40
2018-05-09T18:30:24.657Z,22.40
2018-05-09T18:32:51.436Z,22.10
2018-05-09T18:35:17.606Z,22.10
2018-05-09T18:37:44.407Z,21.80
2018-05-09T18:40:12.513Z,21.80
2018-05-09T18:42:42.359Z,21.80
2018-05-09T18:45:08.467Z,21.60
2018-05-09T18:47:35.360Z,21.40
2018-05-09T18:50:01.685Z,21.40
2018-05-09T18:52:27.773Z,21.30
2018-05-09T18:54:54.647Z,21.10
2018-05-09T18:57:21.790Z,21.10
2018-05-09T18:59:47.876Z,21.10
2018-05-09T19:02:15.212Z,21.00
2018-05-09T19:04:41.702Z,20.90
2018-05-09T19:07:08.521Z,20.60
2018-05-09T19:09:36.334Z,20.50
2018-05-09T19:12:02.528Z,20.50
2018-05-09T19:14:30.449Z,20.40
2018-05-09T19:16:57.535Z,20.40
2018-05-09T19:19:23.603Z,20.30
2018-05-09T19:21:49.717Z,20.20
2018-05-09T19:24:15.912Z,20.20
2018-05-09T19:26:46.129Z,20.10
2018-05-09T19:29:12.275Z,20.10
2018-05-09T19:31:38.331Z,20.10
2018-05-09T19:34:04.359Z,20.00
2018-05-09T19:36:30.502Z,20.00
2018-05-09T19:38:59.856Z,19.90
2018-05-09T19:41:26.325Z,19.90
2018-05-09T19:43:54.194Z,19.80
2018-05-09T19:46:20.358Z,19.80
2018-05-09T19:48:47.415Z,19.70
2018-05-09T19:51:16.783Z,19.70
2018-05-09T19:53:42.823Z,19.70
2018-05-09T19:56:08.967Z,19.70
2018-05-09T19:58:36.158Z,19.60
2018-05-09T20:01:03.416Z,19.60
2018-05-09T20:03:29.597Z,19.60
2018-05-09T20:05:56.808Z,19.50
2018-05-09T20:08:22.887Z,19.40
2018-05-09T20:10:51.812Z,19.40
2018-05-09T20:13:17.940Z,19.40
2018-05-09T20:15:47.253Z,19.30
2018-05-09T20:18:13.732Z,19.30
2018-05-09T20:20:42.158Z,19.30
2018-05-09T20:23:08.385Z,19.30
2018-05-09T20:25:34.826Z,19.10
2018-05-09T20:28:01.741Z,19.20
2018-05-09T20:30:35.503Z,19.20
2018-05-09T20:33:02.952Z,19.10
2018-05-09T20:35:31.090Z,19.00
2018-05-09T20:37:58.615Z,19.00
2018-05-09T20:40:27.870Z,18.90
2018-05-09T20:42:55.031Z,18.90
2018-05-09T20:45:21.259Z,18.80
2018-05-09T20:47:47.508Z,18.80
2018-05-09T20:50:20.058Z,18.80
2018-05-09T20:52:46.597Z,18.70
2018-05-09T20:55:25.009Z,18.70
2018-05-09T20:57:51.192Z,18.60
2018-05-09T21:00:17.401Z,18.60
2018-05-09T21:02:45.480Z,18.50
2018-05-09T21:05:11.920Z,18.50
2018-05-09T21:07:51.198Z,18.40
2018-05-09T21:10:17.315Z,18.30
2018-05-09T21:12:44.482Z,18.40
2018-05-09T21:15:10.716Z,18.40
2018-05-09T21:17:37.127Z,18.30
2018-05-09T21:20:03.244Z,18.30
2018-05-09T21:22:29.324Z,18.20
2018-05-09T21:24:56.284Z,18.20
2018-05-09T21:27:23.124Z,18.20
2018-05-09T21:29:49.227Z,18.20
2018-05-09T21:32:15.988Z,18.10
2018-05-09T21:34:42.374Z,18.10
2018-05-09T21:37:08.452Z,18.00
2018-05-09T21:39:35.738Z,18.00
2018-05-09T21:42:01.805Z,17.90
2018-05-09T21:44:27.896Z,18.00
2018-05-09T21:46:55.286Z,17.90
2018-05-09T21:49:21.570Z,17.90
2018-05-09T21:51:47.676Z,18.00
2018-05-09T21:54:13.724Z,17.90
2018-05-09T21:56:39.848Z,17.90
2018-05-09T21:59:05.991Z,17.90
2018-05-09T22:01:32.131Z,17.80
2018-05-09T22:03:58.244Z,17.70
2018-05-09T22:06:25.356Z,17.70
2018-05-09T22:08:56.544Z,17.70
2018-05-09T22:11:23.861Z,17.70
2018-05-09T22:13:50.686Z,17.60
2018-05-09T22:16:16.757Z,17.60
2018-05-09T22:18:43.871Z,17.60
2018-05-09T22:21:10.759Z,17.50
2018-05-09T22:23:36.863Z,17.40
2018-05-09T22:26:03.061Z,17.50
2018-05-09T22:28:30.168Z,17.40
2018-05-09T22:30:56.578Z,17.40
2018-05-09T22:33:28.890Z,17.30
2018-05-09T22:35:55.046Z,17.20
2018-05-09T22:38:21.911Z,17.20
2018-05-09T22:40:48.189Z,17.10
2018-05-09T22:43:14.320Z,17.10
2018-05-09T22:45:40.589Z,17.10
2018-05-09T22:48:07.357Z,17.00
2018-05-09T22:50:34.421Z,17.00
2018-05-09T22:53:01.069Z,17.10
2018-05-09T22:55:28.098Z,17.00
2018-05-09T22:57:54.166Z,16.90
2018-05-09T23:00:24.441Z,16.80
2018-05-09T23:02:50.775Z,16.70
2018-05-09T23:05:16.861Z,16.60
2018-05-09T23:07:43.785Z,16.60
2018-05-09T23:10:09.854Z,16.50
2018-05-09T23:12:36.706Z,16.40
2018-05-09T23:15:02.866Z,16.40
2018-05-09T23:17:31.004Z,16.40
2018-05-09T23:19:57.069Z,16.40
2018-05-09T23:22:23.115Z,16.40
2018-05-09T23:24:53.017Z,16.40
2018-05-09T23:27:20.099Z,16.50
2018-05-09T23:29:46.950Z,16.50
2018-05-09T23:32:13.783Z,16.50
2018-05-09T23:34:40.610Z,16.40
2018-05-09T23:37:10.052Z,16.40
2018-05-09T23:39:38.417Z,16.40
2018-05-09T23:42:06.310Z,16.50
2018-05-09T23:44:32.364Z,16.40
2018-05-09T23:46:58.505Z,16.50
2018-05-09T23:49:26.555Z,16.60
2018-05-09T23:51:52.785Z,16.50
2018-05-09T23:54:19.815Z,16.50
2018-05-09T23:56:45.923Z,16.50
2018-05-09T23:59:12.030Z,16.50
